Time;durP1;ratioP1;P1;durP2;ratioP2;P2;SDS_P1;SDS_P2;PMS_P1;PMS_P2;Temp;Humidity;BMP_temperature;BMP_pressure;BME280_temperature;BME280_humidity;BME280_pressure;Samples;Min_cycle;Max_cycle;Signal;HPM_P1;HPM_P2
2021/05/18 00:02:03;;;;;;;3.95;0.65;;;;;;;;;;5109371;28;20582;-14
2021/05/18 00:04:29;;;;;;;6.57;0.60;;;;;;;;;;5109291;28;20522;-14
2021/05/18 00:06:54;;;;;;;0.93;0.30;;;;;;;;;;5093790;28;20024;-14
2021/05/18 00:12:04;;;;;;;1.80;0.70;;;;;;;;;;5093400;28;20116;-15
2021/05/18 00:14:32;;;;;;;0.68;0.60;;;;;;;;;;5093596;28;20054;-15
2021/05/18 00:16:57;;;;;;;2.22;1.00;;;;;;;;;;5093400;28;20089;-14
2021/05/18 00:19:23;;;;;;;2.90;1.88;;;;;;;;;;5091973;28;20020;-14
2021/05/18 00:21:48;;;;;;;12.20;3.13;;;;;;;;;;5093296;28;20031;-14
2021/05/18 00:24:14;;;;;;;8.10;3.28;;;;;;;;;;5093202;28;20438;-15
2021/05/18 00:26:39;;;;;;;3.65;1.80;;;;;;;;;;5093147;28;20084;-15
2021/05/18 00:29:06;;;;;;;4.53;2.10;;;;;;;;;;5092777;28;20131;-15
2021/05/18 00:31:31;;;;;;;6.03;2.50;;;;;;;;;;5093452;28;20134;-15
2021/05/18 00:33:57;;;;;;;6.10;3.10;;;;;;;;;;5093007;28;20024;-14
2021/05/18 00:36:22;;;;;;;7.78;3.38;;;;;;;;;;5093222;28;20081;-15
2021/05/18 00:38:47;;;;;;;6.53;3.72;;;;;;;;;;5092999;28;20487;-14
2021/05/18 00:41:13;;;;;;;4.78;2.25;;;;;;;;;;5092833;28;20024;-15
2021/05/18 00:43:39;;;;;;;2.90;1.90;;;;;;;;;;5092928;28;20020;-15
2021/05/18 00:46:04;;;;;;;3.00;1.58;;;;;;;;;;5092781;28;20044;-14
2021/05/18 00:48:30;;;;;;;2.75;1.40;;;;;;;;;;5091501;28;20013;-13
2021/05/18 00:50:57;;;;;;;4.45;1.67;;;;;;;;;;5092839;28;20427;-15
2021/05/18 00:53:23;;;;;;;3.20;1.45;;;;;;;;;;5091409;28;20049;-14
2021/05/18 00:58:44;;;;;;;2.90;1.55;;;;;;;;;;5091435;28;20444;-14
2021/05/18 01:01:11;;;;;;;5.38;2.17;;;;;;;;;;5092675;28;20091;-15
2021/05/18 01:03:37;;;;;;;5.30;2.78;;;;;;;;;;5092525;28;20024;-14
2021/05/18 01:06:19;;;;;;;4.78;2.42;;;;;;;;;;5092575;28;20017;-15
2021/05/18 01:08:45;;;;;;;4.68;2.08;;;;;;;;;;5091176;28;20028;-14
2021/05/18 01:11:11;;;;;;;2.95;2.08;;;;;;;;;;5092395;28;20035;-14
2021/05/18 01:13:37;;;;;;;3.65;2.10;;;;;;;;;;5108280;28;20065;-15
2021/05/18 01:16:06;;;;;;;5.15;3.50;;;;;;;;;;5092426;28;20017;-14
2021/05/18 01:18:40;;;;;;;7.10;3.55;;;;;;;;;;5108007;28;20032;-14
2021/05/18 01:21:05;;;;;;;6.50;3.38;;;;;;;;;;5092147;28;20020;-15
2021/05/18 01:23:31;;;;;;;7.95;4.07;;;;;;;;;;5095381;28;20046;-15
2021/05/18 01:25:57;;;;;;;8.98;4.82;;;;;;;;;;5112337;28;20119;-15
2021/05/18 01:28:23;;;;;;;8.45;3.55;;;;;;;;;;5095021;28;20051;-15
2021/05/18 01:30:49;;;;;;;7.57;4.07;;;;;;;;;;5096739;28;20154;-14
2021/05/18 01:33:17;;;;;;;4.45;2.55;;;;;;;;;;5096405;28;20491;-15
2021/05/18 01:35:42;;;;;;;6.95;3.10;;;;;;;;;;5096534;28;20024;-14
2021/05/18 01:38:12;;;;;;;8.35;2.65;;;;;;;;;;5096227;28;20066;-15
2021/05/18 01:43:10;;;;;;;3.38;2.08;;;;;;;;;;5111919;28;20390;-17
2021/05/18 01:45:36;;;;;;;1.95;1.15;;;;;;;;;;5094920;28;20058;-16
2021/05/18 01:48:08;;;;;;;1.90;1.27;;;;;;;;;;5096103;28;20055;-16
2021/05/18 01:50:37;;;;;;;3.67;1.83;;;;;;;;;;5096162;28;20112;-15
2021/05/18 01:53:03;;;;;;;5.15;2.50;;;;;;;;;;5096036;28;20024;-15
2021/05/18 01:55:36;;;;;;;1.52;0.80;;;;;;;;;;5094844;28;20031;-15
2021/05/18 01:58:02;;;;;;;;;;;;;;;;;;5096477;28;20051;-15
2021/05/18 02:00:40;;;;;;;4.45;3.13;;;;;;;;;;5094750;28;20053;-15
2021/05/18 02:03:18;;;;;;;3.92;2.85;;;;;;;;;;5094503;28;20065;-15
2021/05/18 02:05:43;;;;;;;8.88;2.65;;;;;;;;;;5096263;28;20107;-15
2021/05/18 02:08:29;;;;;;;3.45;2.03;;;;;;;;;;5095069;28;20036;-15
2021/05/18 02:11:00;;;;;;;2.67;1.52;;;;;;;;;;5095768;28;20036;-15
2021/05/18 02:13:27;;;;;;;3.00;1.95;;;;;;;;;;5094410;28;20024;-15
2021/05/18 02:16:02;;;;;;;3.10;2.13;;;;;;;;;;5095700;28;20043;-15
2021/05/18 02:19:00;;;;;;;1.77;1.02;;;;;;;;;;5094499;28;20573;-15
2021/05/18 02:21:31;;;;;;;3.05;1.13;;;;;;;;;;5094069;28;20036;-15
2021/05/18 02:26:41;;;;;;;6.28;2.80;;;;;;;;;;5111253;28;20103;-15
2021/05/18 02:29:07;;;;;;;2.50;2.05;;;;;;;;;;5093878;28;20123;-15
2021/05/18 02:31:33;;;;;;;2.25;1.38;;;;;;;;;;5094977;28;20455;-15
2021/05/18 02:34:09;;;;;;;1.80;0.98;;;;;;;;;;5093964;28;20031;-15
2021/05/18 02:36:38;;;;;;;1.27;0.88;;;;;;;;;;5093976;28;20028;-15
2021/05/18 02:39:04;;;;;;;0.85;0.80;;;;;;;;;;5095171;28;20489;-14
2021/05/18 02:41:30;;;;;;;2.25;1.73;;;;;;;;;;5094031;28;20129;-15
2021/05/18 02:44:15;;;;;;;4.30;2.80;;;;;;;;;;5093737;28;20024;-15
2021/05/18 02:49:33;;;;;;;4.40;2.38;;;;;;;;;;5110684;28;20359;-15
2021/05/18 02:51:59;;;;;;;2.90;1.98;;;;;;;;;;5095111;28;20050;-15
2021/05/18 02:54:27;;;;;;;3.00;2.38;;;;;;;;;;5110621;28;20035;-15
2021/05/18 02:56:59;;;;;;;4.35;3.05;;;;;;;;;;5094842;28;20031;-14
2021/05/18 02:59:24;;;;;;;3.35;2.50;;;;;;;;;;5094729;28;20020;-14
2021/05/18 03:01:51;;;;;;;1.73;1.20;;;;;;;;;;5094992;28;20103;-15
2021/05/18 03:04:18;;;;;;;2.72;1.00;;;;;;;;;;5110349;28;20444;-15
2021/05/18 03:06:44;;;;;;;4.55;0.85;;;;;;;;;;5094728;28;20016;-15
2021/05/18 03:09:13;;;;;;;2.10;1.40;;;;;;;;;;5093293;28;20521;-15
2021/05/18 03:11:40;;;;;;;2.05;1.20;;;;;;;;;;5094858;28;20039;-16
2021/05/18 03:14:06;;;;;;;2.08;1.60;;;;;;;;;;5094549;28;20024;-16
2021/05/18 03:16:31;;;;;;;3.03;0.82;;;;;;;;;;5094802;28;20031;-16
2021/05/18 03:18:57;;;;;;;1.15;0.68;;;;;;;;;;5094647;28;20024;-15
2021/05/18 03:21:22;;;;;;;4.68;0.50;;;;;;;;;;5094440;28;20092;-16
2021/05/18 03:23:48;;;;;;;1.38;1.27;;;;;;;;;;5094693;28;20027;-15
2021/05/18 03:26:13;;;;;;;0.88;0.80;;;;;;;;;;5094186;28;20077;-15
2021/05/18 03:28:39;;;;;;;0.63;0.50;;;;;;;;;;5094153;28;20040;-15
2021/05/18 03:34:35;;;;;;;4.72;1.83;;;;;;;;;;5094141;28;20028;-16
2021/05/18 03:36:35;;;;;;;2.25;1.45;;;;;;;;;;5088996;28;20044;-16
2021/05/18 03:39:00;;;;;;;1.63;1.08;;;;;;;;;;5094325;28;20023;-16
2021/05/18 03:41:30;;;;;;;2.67;0.88;;;;;;;;;;5094005;28;20055;-16
2021/05/18 03:44:02;;;;;;;1.92;1.10;;;;;;;;;;5093242;28;20077;-16
2021/05/18 04:24:25;;;;;;;1.90;1.50;;;;;;;;;;5093479;28;20028;-15
